Nearby Weather Observations


KTIP - Rantoul, Illinois, USA
Distance from station: ENE 12mi, 19km
Updated: Thu, 23-Sep-2021 7:35am CDT
Clear
Clear
 Wind from WNW
Wind: WNW 10 mph , 17 km/h
Temperature: 48°F , 9°C
Wind Chill: 44°F , 7°C
Dew Point: 43°F , 6°C
Humidity: 82%
Barometer: 30.01 inHg , 1016.3 hPa
Clouds: Clear
Visibility: 10 miles , 16 km
2021/09/23 12:35 KTIP 231235Z AUTO 30009KT 10SM CLR 09/06 A3001 RMK AO2 T00900064
KCMI - Champaign/Urbana, Illinois, USA
Distance from station: SSE 14mi, 22km
Updated: Thu, 23-Sep-2021 6:53am CDT
Clear
Clear
 Wind from W
Wind: W 7 mph , 11 km/h
Temperature: 45°F , 7°C
Wind Chill: 41°F , 5°C
Dew Point: 43°F , 6°C
Humidity: 93%
Barometer: 30.02 inHg , 1016.6 hPa
Clouds: Clear
Visibility: 10 miles , 16 km
2021/09/23 11:53 KCMI 231153Z 28006KT 10SM CLR 07/06 A3002 RMK AO2 SLP168 70007 T00720061 10083 20067 53003
 
KBMI - Bloomington/Norm, Illinois, USA
Distance from station: WNW 34mi, 55km
Updated: Thu, 23-Sep-2021 6:56am CDT
Clear
Clear
 Wind from WNW
Wind: WNW 9 mph , 15 km/h
Temperature: 46°F , 8°C
Wind Chill: 41°F , 5°C
Dew Point: 43°F , 6°C
Humidity: 87%
Barometer: 30.06 inHg , 1017.9 hPa
Clouds: Clear
Visibility: 10 miles , 16 km
2021/09/23 11:56 KBMI 231156Z 29008KT 10SM CLR 08/06 A3006 RMK AO2 SLP177 70001 T00830056 10117 20083 53005
KDEC - Decatur, Illinois, USA
Distance from station: SW 37mi, 60km
Updated: Thu, 23-Sep-2021 6:54am CDT
Clear
Clear
 Wind from WNW
Wind: WNW 10 mph , 17 km/h
Temperature: 48°F , 9°C
Wind Chill: 44°F , 7°C
Dew Point: 45°F , 7°C
Humidity: 87%
Barometer: 30.07 inHg , 1018.3 hPa
Clouds: Clear
Visibility: 10 miles , 16 km
2021/09/23 11:54 KDEC 231154Z 30009KT 10SM CLR 09/07 A3007 RMK AO2 SLP182 70005 T00940067 10122 20089 53007
 
KDNV - Danville, Illinois, USA
Distance from station: E 40mi, 65km
Updated: Thu, 23-Sep-2021 7:35am CDT
Clear
Clear
 Wind from WNW
Wind: WNW 8 mph , 13 km/h
Temperature: 50°F , 10°C
Wind Chill: 47°F , 8°C
Dew Point: 45°F , 7°C
Humidity: 82%
Barometer: 30.00 inHg , 1015.9 hPa
Clouds: Clear
Visibility: 10 miles , 16 km
2021/09/23 12:35 KDNV 231235Z AUTO 29007KT 10SM CLR 10/07 A3000 RMK AO2 T00950070
KAAA - Lincoln, Illinois, USA
Distance from station: W 52mi, 83km
Updated: Thu, 23-Sep-2021 7:35am CDT
Clear
Clear
 Wind from calm
Wind: Calm
Temperature: 48°F , 9°C
Dew Point: 48°F , 9°C
Humidity: 100%
Barometer: 30.08 inHg , 1018.6 hPa
Clouds: Clear
Visibility: 10 miles , 16 km
2021/09/23 12:35 KAAA 231235Z AUTO 00000KT 10SM CLR 09/09 A3008 RMK AO2 T00910085
 
KMTO - Mattoon/Charlest, Illinois, USA
Distance from station: S 52mi, 84km
Updated: Thu, 23-Sep-2021 6:53am CDT
Clear
Clear
 Wind from WNW
Wind: WNW 9 mph , 15 km/h
Temperature: 46°F , 8°C
Wind Chill: 41°F , 5°C
Dew Point: 43°F , 6°C
Humidity: 87%
Barometer: 30.04 inHg , 1017.3 hPa
Clouds: Clear
Visibility: 10 miles , 16 km
2021/09/23 11:53 KMTO 231153Z AUTO 30008KT 10SM CLR 08/06 A3004 RMK AO2 SLP171 70006 T00830056 10089 20078 53006
KSPI - Springfield, Illinois, USA
Distance from station: WSW 74mi, 120km
Updated: Thu, 23-Sep-2021 6:52am CDT
Clear
Clear
 Wind from calm
Wind: Calm
Temperature: 45°F , 7°C
Dew Point: 43°F , 6°C
Humidity: 93%
Barometer: 30.10 inHg , 1019.3 hPa
Clouds: Clear
Visibility: 10 miles , 16 km
2021/09/23 11:52 KSPI 231152Z 00000KT 10SM CLR 07/06 A3010 RMK AO2 SLP192 T00720061 10083 20067 53010 $
 
KLAF - Lafayette, Indiana, USA
Distance from station: E 76mi, 123km
Updated: Thu, 23-Sep-2021 6:54am CDT
Clear
Clear
 Wind from W
Wind: W 9 mph , 15 km/h
Temperature: 52°F , 11°C
Dew Point: 46°F , 8°C
Humidity: 82%
Barometer: 29.94 inHg , 1013.9 hPa
Clouds: Clear
Visibility: 10 miles , 16 km
2021/09/23 11:54 KLAF 231154Z 28008KT 10SM CLR 11/08 A2994 RMK AO2 SLP138 70057 T01110078 10122 20111 53003
KPIA - Peoria, Illinois, USA
Distance from station: WNW 76mi, 123km
Updated: Thu, 23-Sep-2021 6:54am CDT
Clear
Clear
 Wind from NW
Wind: NW 5 mph , 7 km/h
Temperature: 48°F , 9°C
Wind Chill: 46°F , 8°C
Dew Point: 43°F , 6°C
Humidity: 82%
Barometer: 30.09 inHg , 1019 hPa
Clouds: Clear
Visibility: 10 miles , 16 km
2021/09/23 11:54 KPIA 231154Z 31004KT 10SM CLR 09/06 A3009 RMK AO2 SLP188 T00940056 10111 20094 53008
 
KHUF - Terre Haute, Indiana, USA
Distance from station: SE 77mi, 124km
Updated: Thu, 23-Sep-2021 6:53am CDT
Clear
Clear
 Wind from W
Wind: W 7 mph , 11 km/h
Temperature: 48°F , 9°C
Wind Chill: 45°F , 7°C
Dew Point: 45°F , 7°C
Humidity: 87%
Barometer: 30.00 inHg , 1015.9 hPa
Clouds: Clear
Visibility: 10 miles , 16 km
2021/09/23 11:53 KHUF 231153Z 27006KT 10SM CLR 09/07 A3000 RMK AO2 SLP160 70049 T00890067 10111 20089 53005
K1H2 - Effingham, Illinois, USA
Distance from station: S 80mi, 129km
Updated: Thu, 23-Sep-2021 7:35am CDT
Clear
Clear
 Wind from WSW
Wind: WSW 5 mph , 7 km/h
Temperature: 46°F , 8°C
Wind Chill: 44°F , 7°C
Dew Point: 45°F , 7°C
Humidity: 93%
Barometer: 30.09 inHg , 1019 hPa
Clouds: Clear
Visibility: 10 miles , 16 km
2021/09/23 12:35 K1H2 231235Z AUTO 25004KT 10SM CLR 08/07 A3009 RMK AO2 T00840070
 
KIND - Indianapolis, Indiana, USA
Distance from station: ESE 117mi, 133km
Updated: Thu, 23-Sep-2021 6:54am CDT
Mostly cloudy
Mostly cloudy
 Wind from W
Wind: W 13 mph , 20 km/h
Temperature: 52°F , 11°C
Dew Point: 45°F , 7°C
Humidity: 77%
Barometer: 29.94 inHg , 1013.9 hPa
Clouds: Mostly cloudy
Visibility: 10 miles , 16 km
Cloud details: Few Clouds 2000 ft
Mostly cloudy 13000 ft
Mostly cloudy 25000 ft
2021/09/23 11:54 KIND 231154Z 27011KT 10SM FEW020 BKN130 BKN250 11/07 A2994 RMK AO2 SLP140 70112 T01060072 10122 20106 50003 $
KORD - Chicago O'hare, Illinois, USA
Distance from station: N 126mi, 203km
Updated: Thu, 23-Sep-2021 6:51am CDT
Mostly cloudy
Mostly cloudy
 Wind from NW
Wind: NW 13 mph , 20 km/h
Temperature: 52°F , 11°C
Dew Point: 43°F , 6°C
Humidity: 72%
Barometer: 29.97 inHg , 1014.9 hPa
Clouds: Mostly cloudy
Visibility: 10 miles , 16 km
Cloud details: Few Clouds 2700 ft
Partly cloudy 16000 ft
Mostly cloudy 23000 ft
2021/09/23 11:51 KORD 231151Z 31011KT 10SM FEW027 SCT160 BKN230 11/06 A2997 RMK AO2 SLP149 T01060061 10139 20106 55001
 
KSTL - St. Louis, Missouri, USA
Distance from station: SW 150mi, 185km
Updated: Thu, 23-Sep-2021 6:51am CDT
Clear
Clear
 Wind from calm
Wind: Calm
Temperature: 52°F , 11°C
Dew Point: 46°F , 8°C
Humidity: 82%
Barometer: 30.12 inHg , 1020 hPa
Clouds: Clear
Visibility: 10 miles , 16 km
2021/09/23 11:51 KSTL 231151Z 00000KT 10SM CLR 11/08 A3012 RMK AO2 SLP195 T01060078 10139 20106 53006 $